메인 페이지
METAR-TAF:

METAR-TAF

공항 :

오클랜드, 뉴질랜드

오클랜드 국제공항

위도: 37-01S, 경도: 174-48E, 고도: 7m

현재 날씨관측

예보는 31분 전, 15:30시(UTC)에 발표되었습니다.
9kt
온도 22°C
습도 94%
기압 1008 hPa
시정 10km 이상

METAR: NZAA 191530Z AUTO 01009KT 9999 BKN014/// BKN055/// 22/21 Q1008 TEMPO FEW012 BKN018

시각: 05:01 (16:01 UTC)

예보

예보는 4 시간 57분 전, 11:04시(UTC)에 발표되었습니다.
예보 대상 시간: 19일 12시부터 20일 12시까지 (UTC)
북북동15kt
시정 10km 이상
고도 1200ft 상공 구름 조금
고도 1800ft 상공 구름 많음
약한소나기
일시적
19일 12시부터 19일 20시까지 (UTC)
고도 1400ft 상공 구름 많음
전환 중
19일 18시부터 19일 20시까지 (UTC)
북북동15kt, 순간 최대 풍속 25kt
전환 중
20일 00시부터 20일 02시까지 (UTC)
북북동20kt, 순간 최대 풍속 35kt
일시적
20일 04시부터 20일 10시까지 (UTC)
시정: 4000m
고도 2000ft 상공 구름 조금, 타워링 적운.
전환 중
20일 06시부터 20일 08시까지 (UTC)
북북서15kt

TAF: NZAA 191104Z 1912/2012 02015KT 9999 -SHRA FEW012 BKN018 TEMPO 1912/1920 BKN014 BECMG 1918/1920 02015G25KT BECMG 2000/2002 02020G35KT TEMPO 2004/2010 4000 RA FEW020TCU BECMG 2006/2008 34015KT

4,000개 이상의 공항 관측 자료 및 예보 (METAR 및 TAF 보고).

지도상에서 검색 가능한 기상관측소가 노란 점과 빨간 점으로 표시되어 있습니다.

기상관측소 명을 보려면 표시 위로 마우스를 이동하세요.

날씨 관측과 예보를 보려면 클릭하세요.

지도 변경 : 확대하려면 엑스 표시가 있는 녹색 버튼, 축소하려면 빼기 표시가 있는 녹색 버튼, 다음 페이지의 지도를 보려면 녹색 화살표를 클릭하세요.


METAR-TAF: